createdAt,value
2023-03-04T00:01:27.671Z,62.80
2023-03-04T00:05:09.663Z,62.90
2023-03-04T00:08:51.432Z,62.90
2023-03-04T00:12:33.288Z,62.90
2023-03-04T00:16:15.037Z,63.00
2023-03-04T00:19:56.916Z,63.00
2023-03-04T00:23:41.232Z,63.00
2023-03-04T00:27:22.997Z,63.00
2023-03-04T00:31:04.898Z,63.10
2023-03-04T00:34:46.673Z,63.10
2023-03-04T00:38:28.529Z,63.10
2023-03-04T00:42:10.257Z,63.20
2023-03-04T00:45:52.020Z,63.20
2023-03-04T00:49:34.835Z,63.20
2023-03-04T00:53:16.532Z,63.20
2023-03-04T00:56:58.364Z,63.20
2023-03-04T01:00:40.142Z,63.30
2023-03-04T01:04:21.932Z,63.40
2023-03-04T01:08:05.256Z,63.40
2023-03-04T01:11:46.979Z,63.40
2023-03-04T01:15:28.979Z,63.40
2023-03-04T01:19:10.974Z,63.40
2023-03-04T01:22:52.672Z,63.50
2023-03-04T01:26:34.489Z,63.50
2023-03-04T01:30:16.205Z,63.40
2023-03-04T01:33:57.954Z,63.40
2023-03-04T01:37:39.689Z,63.50
2023-03-04T01:41:25.633Z,63.60
2023-03-04T01:45:11.054Z,63.70
2023-03-04T01:48:53.009Z,63.70
2023-03-04T01:52:34.785Z,63.70
2023-03-04T01:56:19.496Z,63.80
2023-03-04T02:00:19.736Z,63.80
2023-03-04T02:04:01.683Z,64.20
2023-03-04T02:07:44.712Z,63.90
2023-03-04T02:11:27.028Z,63.90
2023-03-04T02:15:09.269Z,63.90
2023-03-04T02:18:51.209Z,63.90
2023-03-04T02:22:37.076Z,63.80
2023-03-04T02:26:24.855Z,63.80
2023-03-04T02:30:07.335Z,63.80
2023-03-04T02:33:49.497Z,63.80
2023-03-04T02:37:31.307Z,63.80
2023-03-04T02:41:16.362Z,63.80
2023-03-04T02:45:02.103Z,63.80
2023-03-04T02:48:43.924Z,63.90
2023-03-04T02:52:26.549Z,63.90
2023-03-04T02:56:08.398Z,63.90
2023-03-04T02:59:50.155Z,63.90
2023-03-04T03:03:31.910Z,63.80
2023-03-04T03:07:13.717Z,63.80
2023-03-04T03:10:55.465Z,63.80
2023-03-04T03:14:37.145Z,63.80
2023-03-04T03:18:18.932Z,63.80
2023-03-04T03:22:00.675Z,63.70
2023-03-04T03:25:42.358Z,63.80
2023-03-04T03:29:24.112Z,63.80
2023-03-04T03:33:05.833Z,63.80
2023-03-04T03:36:47.563Z,63.80
2023-03-04T03:40:29.280Z,63.90
2023-03-04T03:44:10.997Z,63.90
2023-03-04T03:47:52.754Z,63.90
2023-03-04T03:51:34.464Z,63.90
2023-03-04T03:55:16.379Z,63.90
2023-03-04T03:58:58.113Z,63.80
2023-03-04T04:02:40.617Z,63.80
2023-03-04T04:06:22.773Z,63.80
2023-03-04T04:10:05.804Z,63.80
2023-03-04T04:13:47.566Z,63.70
2023-03-04T04:17:29.305Z,63.70
2023-03-04T04:21:11.062Z,63.70
2023-03-04T04:24:52.843Z,63.70
2023-03-04T04:28:34.672Z,63.70
2023-03-04T04:32:16.563Z,63.70
2023-03-04T04:35:58.365Z,63.70
2023-03-04T04:39:40.370Z,63.70
2023-03-04T04:43:22.128Z,63.70
2023-03-04T04:47:03.907Z,63.70
2023-03-04T04:50:45.634Z,63.70
2023-03-04T04:54:27.430Z,63.70
2023-03-04T04:58:09.135Z,63.70
2023-03-04T05:01:50.879Z,63.70
2023-03-04T05:05:32.620Z,63.70
2023-03-04T05:09:14.419Z,63.80
2023-03-04T05:12:56.166Z,63.70
2023-03-04T05:16:37.898Z,63.70
2023-03-04T05:20:19.799Z,63.70
2023-03-04T05:24:01.556Z,63.60
2023-03-04T05:27:43.253Z,63.60
2023-03-04T05:31:25.117Z,63.60
2023-03-04T05:35:07.339Z,63.60
2023-03-04T05:38:49.090Z,63.60
2023-03-04T05:42:30.975Z,63.50
2023-03-04T05:46:15.447Z,63.50
2023-03-04T05:49:58.076Z,63.50
2023-03-04T05:53:41.461Z,63.50
2023-03-04T05:57:23.199Z,63.60
2023-03-04T06:01:05.589Z,63.60
2023-03-04T06:04:47.267Z,63.50
2023-03-04T06:08:29.104Z,63.60
2023-03-04T06:12:12.083Z,63.60
2023-03-04T06:15:56.522Z,63.50
2023-03-04T06:19:38.291Z,63.60
2023-03-04T06:23:19.997Z,63.60
2023-03-04T06:27:01.843Z,63.60
2023-03-04T06:30:43.560Z,63.70
2023-03-04T06:34:25.296Z,63.70
2023-03-04T06:38:07.013Z,63.70
2023-03-04T06:41:48.728Z,63.70
2023-03-04T06:45:30.591Z,63.70
2023-03-04T06:49:12.404Z,63.60
2023-03-04T06:52:56.867Z,63.60
2023-03-04T06:56:38.588Z,63.70
2023-03-04T07:00:20.636Z,63.70
2023-03-04T07:04:02.713Z,63.60
2023-03-04T07:07:44.481Z,63.60
2023-03-04T07:11:26.555Z,63.60
2023-03-04T07:15:08.922Z,63.60
2023-03-04T07:18:50.715Z,63.60
2023-03-04T07:22:32.447Z,63.60
2023-03-04T07:26:14.631Z,63.60
2023-03-04T07:29:56.396Z,63.60
2023-03-04T07:33:38.312Z,63.60
2023-03-04T07:37:20.021Z,63.60
2023-03-04T07:41:02.019Z,63.60
2023-03-04T07:44:43.725Z,63.70
2023-03-04T07:48:25.467Z,63.70
2023-03-04T07:52:07.296Z,63.60
2023-03-04T07:55:49.045Z,63.60
2023-03-04T07:59:30.992Z,63.60
2023-03-04T08:03:12.684Z,63.70
2023-03-04T08:06:54.441Z,63.70
2023-03-04T08:10:36.548Z,63.60
2023-03-04T08:14:18.472Z,63.60
2023-03-04T08:18:00.164Z,63.60
2023-03-04T08:21:41.933Z,63.60
2023-03-04T08:25:23.639Z,63.60
2023-03-04T08:29:06.013Z,63.60
2023-03-04T08:32:47.763Z,63.60
2023-03-04T08:36:29.566Z,63.60
2023-03-04T08:40:12.310Z,63.60
2023-03-04T08:43:53.995Z,63.60
2023-03-04T08:47:35.735Z,63.60
2023-03-04T08:51:17.819Z,63.60
2023-03-04T08:55:00.953Z,63.50
2023-03-04T08:58:42.862Z,63.50
2023-03-04T09:02:24.620Z,63.50
2023-03-04T09:06:08.410Z,63.40
2023-03-04T09:09:50.106Z,63.50
2023-03-04T09:13:32.280Z,63.50
2023-03-04T09:17:14.074Z,63.50
2023-03-04T09:20:55.844Z,63.40
2023-03-04T09:24:37.671Z,63.30
2023-03-04T09:28:20.113Z,63.30
2023-03-04T09:32:01.947Z,63.20
2023-03-04T09:35:43.877Z,63.30
2023-03-04T09:39:25.712Z,63.20
2023-03-04T09:43:22.553Z,63.20
2023-03-04T09:47:09.932Z,63.20
2023-03-04T09:51:21.166Z,63.10
2023-03-04T09:55:34.985Z,62.90
2023-03-04T09:59:22.804Z,62.80
2023-03-04T10:03:10.540Z,63.00
2023-03-04T10:06:54.719Z,62.80
2023-03-04T10:10:39.620Z,62.80
2023-03-04T10:14:52.313Z,62.90
2023-03-04T10:18:41.169Z,62.80
2023-03-04T10:22:48.039Z,62.80
2023-03-04T10:26:33.027Z,62.80
2023-03-04T10:30:40.407Z,62.80
2023-03-04T10:34:22.471Z,62.50
2023-03-04T10:38:13.458Z,62.60
2023-03-04T10:41:59.540Z,62.60
2023-03-04T10:45:41.407Z,62.60
2023-03-04T10:49:25.085Z,62.60
2023-03-04T10:53:36.737Z,62.40
2023-03-04T10:57:32.219Z,62.30
2023-03-04T11:01:17.634Z,62.40
2023-03-04T11:05:05.240Z,62.40
2023-03-04T11:09:00.336Z,62.20
2023-03-04T11:12:42.474Z,62.10
2023-03-04T11:16:28.057Z,62.20
2023-03-04T11:20:14.471Z,62.20
2023-03-04T11:24:27.511Z,62.20
2023-03-04T11:28:24.219Z,62.10
2023-03-04T11:32:28.449Z,61.70
2023-03-04T11:36:40.344Z,61.50
2023-03-04T11:40:45.650Z,61.40
2023-03-04T11:44:27.355Z,61.30
2023-03-04T11:48:23.988Z,61.70
2023-03-04T11:52:35.065Z,61.20
2023-03-04T11:56:23.666Z,61.00
2023-03-04T12:00:11.100Z,61.30
2023-03-04T12:04:24.298Z,61.40
2023-03-04T12:08:20.996Z,61.00
2023-03-04T12:12:37.352Z,60.90
2023-03-04T12:16:21.920Z,60.70
2023-03-04T12:20:15.631Z,61.20
2023-03-04T12:24:19.200Z,61.20
2023-03-04T12:28:41.911Z,60.80
2023-03-04T12:32:28.317Z,60.50
2023-03-04T12:36:21.252Z,61.00
2023-03-04T12:40:12.480Z,60.60
2023-03-04T12:44:00.031Z,60.90
2023-03-04T12:48:03.334Z,60.80
2023-03-04T12:52:12.903Z,60.70
2023-03-04T12:55:57.442Z,60.60
2023-03-04T13:00:12.952Z,60.80
2023-03-04T13:04:15.328Z,60.20
2023-03-04T13:08:09.990Z,60.30
2023-03-04T13:11:54.863Z,60.30
2023-03-04T13:15:37.787Z,60.50
2023-03-04T13:19:46.024Z,60.40
2023-03-04T13:23:29.524Z,59.90
2023-03-04T13:27:48.507Z,60.40
2023-03-04T13:31:30.541Z,59.80
2023-03-04T13:35:50.636Z,60.00
2023-03-04T13:39:36.084Z,59.70
2023-03-04T13:43:26.142Z,60.30
2023-03-04T13:47:18.678Z,60.10
2023-03-04T13:51:00.697Z,60.00
2023-03-04T13:54:42.486Z,60.20
2023-03-04T13:58:26.970Z,60.10
2023-03-04T14:02:17.110Z,60.00
2023-03-04T14:06:32.528Z,59.90
2023-03-04T14:10:15.050Z,59.60
2023-03-04T14:13:58.844Z,59.90
2023-03-04T14:17:46.268Z,59.90
2023-03-04T14:21:28.954Z,59.80
2023-03-04T14:25:13.623Z,59.80
2023-03-04T14:28:57.402Z,59.80
2023-03-04T14:32:43.080Z,59.60
2023-03-04T14:36:25.943Z,59.70
2023-03-04T14:40:08.771Z,59.70
2023-03-04T14:44:02.218Z,59.70
2023-03-04T14:47:47.450Z,59.60
2023-03-04T14:51:39.039Z,59.70
2023-03-04T14:55:27.197Z,59.40
2023-03-04T14:59:13.428Z,59.60
2023-03-04T15:02:58.918Z,59.40
2023-03-04T15:06:54.250Z,59.50
2023-03-04T15:10:38.166Z,59.40
2023-03-04T15:14:45.597Z,59.60
2023-03-04T15:18:30.123Z,59.10
2023-03-04T15:22:11.856Z,59.60
2023-03-04T15:25:59.633Z,59.60
2023-03-04T15:29:41.673Z,59.60
2023-03-04T15:33:24.401Z,59.60
2023-03-04T15:37:06.179Z,59.40
2023-03-04T15:40:48.491Z,59.50
2023-03-04T15:44:30.288Z,59.50
2023-03-04T15:48:14.272Z,59.50
2023-03-04T15:51:56.497Z,59.40
2023-03-04T15:55:38.298Z,59.40
2023-03-04T15:59:20.118Z,59.30
2023-03-04T16:03:01.950Z,59.50
2023-03-04T16:06:48.664Z,59.50
2023-03-04T16:10:31.263Z,59.50
2023-03-04T16:14:14.706Z,59.60
2023-03-04T16:17:57.413Z,59.60
2023-03-04T16:21:39.667Z,59.60
2023-03-04T16:25:22.416Z,59.60
2023-03-04T16:29:04.134Z,59.70
2023-03-04T16:32:45.995Z,59.60
2023-03-04T16:36:29.074Z,59.60
2023-03-04T16:40:14.324Z,59.60
2023-03-04T16:43:59.180Z,59.50
2023-03-04T16:47:40.889Z,59.60
2023-03-04T16:51:23.635Z,59.60
2023-03-04T16:55:05.629Z,59.60
2023-03-04T16:58:47.795Z,59.60
2023-03-04T17:02:29.761Z,59.50
2023-03-04T17:06:12.318Z,59.60
2023-03-04T17:09:54.162Z,59.70
2023-03-04T17:13:35.878Z,59.70
2023-03-04T17:17:18.553Z,59.70
2023-03-04T17:21:06.016Z,59.70
2023-03-04T17:24:48.292Z,59.80
2023-03-04T17:28:30.749Z,59.80
2023-03-04T17:32:12.522Z,60.00
2023-03-04T17:35:54.284Z,60.00
2023-03-04T17:39:36.105Z,60.00
2023-03-04T17:43:18.065Z,60.00
2023-03-04T17:46:59.855Z,60.00
2023-03-04T17:50:52.134Z,60.10
2023-03-04T17:54:34.770Z,60.10
2023-03-04T17:58:16.495Z,60.20
2023-03-04T18:01:58.280Z,60.30
2023-03-04T18:05:40.563Z,60.30
2023-03-04T18:09:22.284Z,60.30
2023-03-04T18:13:04.148Z,60.30
2023-03-04T18:16:45.889Z,60.40
2023-03-04T18:20:27.642Z,60.40
2023-03-04T18:24:09.747Z,60.40
2023-03-04T18:27:51.474Z,60.40
2023-03-04T18:31:33.325Z,60.30
2023-03-04T18:35:15.059Z,60.20
2023-03-04T18:38:59.362Z,60.20
2023-03-04T18:42:44.169Z,60.20
2023-03-04T18:46:40.214Z,60.20
2023-03-04T18:50:22.006Z,60.10
2023-03-04T18:54:03.993Z,60.00
2023-03-04T18:57:50.849Z,60.10
2023-03-04T19:01:32.894Z,60.10
2023-03-04T19:05:18.654Z,60.00
2023-03-04T19:09:00.815Z,60.10
2023-03-04T19:12:42.646Z,60.10
2023-03-04T19:16:24.600Z,60.00
2023-03-04T19:20:09.341Z,60.00
2023-03-04T19:23:51.147Z,60.10
2023-03-04T19:27:32.869Z,60.00
2023-03-04T19:31:14.788Z,60.00
2023-03-04T19:34:56.650Z,60.00
2023-03-04T19:38:38.549Z,60.00
2023-03-04T19:42:20.297Z,60.00
2023-03-04T19:46:02.220Z,60.00
2023-03-04T19:49:43.929Z,60.10
2023-03-04T19:53:26.160Z,60.20
2023-03-04T19:57:07.845Z,60.30
2023-03-04T20:00:50.482Z,60.30
2023-03-04T20:04:32.252Z,60.30
2023-03-04T20:08:14.103Z,60.30
2023-03-04T20:11:58.822Z,60.30
2023-03-04T20:15:43.071Z,60.40
2023-03-04T20:19:24.861Z,60.40
2023-03-04T20:23:06.808Z,60.50
2023-03-04T20:26:49.227Z,60.40
2023-03-04T20:30:30.996Z,60.40
2023-03-04T20:34:13.324Z,60.40
2023-03-04T20:37:55.105Z,60.40
2023-03-04T20:41:37.249Z,60.40
2023-03-04T20:45:20.243Z,60.30
2023-03-04T20:49:07.544Z,60.30
2023-03-04T20:52:49.266Z,60.30
2023-03-04T20:56:31.537Z,60.30
2023-03-04T21:00:13.710Z,60.10
2023-03-04T21:03:55.446Z,60.10
2023-03-04T21:07:37.557Z,60.10
2023-03-04T21:11:19.389Z,60.00
2023-03-04T21:15:01.126Z,60.00
2023-03-04T21:18:43.841Z,59.90
2023-03-04T21:22:26.968Z,59.80
2023-03-04T21:26:08.846Z,59.80
2023-03-04T21:29:50.655Z,59.70
2023-03-04T21:33:36.433Z,59.70
2023-03-04T21:37:19.541Z,59.70
2023-03-04T21:41:01.247Z,59.80
2023-03-04T21:44:51.661Z,59.80
2023-03-04T21:48:33.553Z,59.80
2023-03-04T21:52:15.578Z,59.80
2023-03-04T21:55:57.872Z,59.80
2023-03-04T21:59:40.053Z,59.80
2023-03-04T22:03:23.090Z,59.80
2023-03-04T22:07:04.812Z,59.90
2023-03-04T22:10:47.253Z,59.80
2023-03-04T22:14:29.601Z,59.80
2023-03-04T22:18:13.738Z,59.80
2023-03-04T22:21:55.554Z,59.80
2023-03-04T22:25:40.361Z,59.70
2023-03-04T22:29:22.063Z,59.70
2023-03-04T22:33:03.961Z,59.80
2023-03-04T22:36:46.763Z,59.80
2023-03-04T22:40:28.541Z,59.80
2023-03-04T22:44:10.359Z,59.70
2023-03-04T22:47:52.912Z,59.80
2023-03-04T22:51:34.961Z,59.80
2023-03-04T22:55:19.234Z,59.80
2023-03-04T22:59:00.966Z,59.80
2023-03-04T23:02:43.166Z,59.70
2023-03-04T23:06:27.777Z,59.70
2023-03-04T23:10:23.056Z,59.70
2023-03-04T23:14:07.830Z,59.80
2023-03-04T23:17:50.026Z,59.80
2023-03-04T23:21:35.097Z,59.80
2023-03-04T23:25:17.302Z,59.80
2023-03-04T23:29:01.403Z,59.80
2023-03-04T23:32:44.216Z,59.80
2023-03-04T23:36:34.706Z,59.80
2023-03-04T23:40:16.645Z,59.80
2023-03-04T23:43:59.324Z,59.80
2023-03-04T23:47:41.075Z,59.80
2023-03-04T23:51:26.428Z,59.80
2023-03-04T23:55:08.724Z,59.80
2023-03-04T23:58:51.264Z,59.80
